sensor_id;sensor_type;location;lat;lon;timestamp;P1;durP1;ratioP1;P2;durP2;ratioP2
21503;SDS011;10913;51.992;9.228;2022-11-20T00:00:54;12.60;;;10.68;;
21503;SDS011;10913;51.992;9.228;2022-11-20T00:03:19;13.43;;;10.70;;
21503;SDS011;10913;51.992;9.228;2022-11-20T00:05:45;12.35;;;10.77;;
21503;SDS011;10913;51.992;9.228;2022-11-20T00:08:10;13.18;;;11.10;;
21503;SDS011;10913;51.992;9.228;2022-11-20T00:10:36;13.60;;;10.95;;
21503;SDS011;10913;51.992;9.228;2022-11-20T00:13:02;13.82;;;10.18;;
21503;SDS011;10913;51.992;9.228;2022-11-20T00:15:28;11.73;;;10.00;;
21503;SDS011;10913;51.992;9.228;2022-11-20T00:17:54;12.25;;;10.00;;
21503;SDS011;10913;51.992;9.228;2022-11-20T00:20:19;11.73;;;10.32;;
21503;SDS011;10913;51.992;9.228;2022-11-20T00:22:45;13.15;;;10.73;;
21503;SDS011;10913;51.992;9.228;2022-11-20T00:25:10;12.50;;;10.65;;
21503;SDS011;10913;51.992;9.228;2022-11-20T00:27:36;14.00;;;10.82;;
21503;SDS011;10913;51.992;9.228;2022-11-20T00:30:02;12.45;;;10.38;;
21503;SDS011;10913;51.992;9.228;2022-11-20T00:32:29;12.70;;;10.95;;
21503;SDS011;10913;51.992;9.228;2022-11-20T00:34:56;13.57;;;11.30;;
21503;SDS011;10913;51.992;9.228;2022-11-20T00:37:21;14.38;;;11.23;;
21503;SDS011;10913;51.992;9.228;2022-11-20T00:39:47;13.50;;;11.70;;
21503;SDS011;10913;51.992;9.228;2022-11-20T00:42:12;13.23;;;11.00;;
21503;SDS011;10913;51.992;9.228;2022-11-20T00:44:37;14.18;;;11.23;;
21503;SDS011;10913;51.992;9.228;2022-11-20T00:47:03;14.05;;;11.23;;
21503;SDS011;10913;51.992;9.228;2022-11-20T00:49:28;12.88;;;11.40;;
21503;SDS011;10913;51.992;9.228;2022-11-20T00:51:54;12.75;;;11.18;;
21503;SDS011;10913;51.992;9.228;2022-11-20T00:54:19;12.45;;;10.60;;
21503;SDS011;10913;51.992;9.228;2022-11-20T00:56:44;12.77;;;11.05;;
21503;SDS011;10913;51.992;9.228;2022-11-20T00:59:10;11.88;;;10.52;;
21503;SDS011;10913;51.992;9.228;2022-11-20T01:01:36;12.48;;;10.95;;
21503;SDS011;10913;51.992;9.228;2022-11-20T01:04:02;12.43;;;10.50;;
21503;SDS011;10913;51.992;9.228;2022-11-20T01:06:35;13.50;;;10.90;;
21503;SDS011;10913;51.992;9.228;2022-11-20T01:11:32;12.07;;;10.40;;
21503;SDS011;10913;51.992;9.228;2022-11-20T01:14:00;13.75;;;11.38;;
21503;SDS011;10913;51.992;9.228;2022-11-20T01:16:32;13.27;;;11.63;;
21503;SDS011;10913;51.992;9.228;2022-11-20T01:19:02;14.13;;;11.32;;
21503;SDS011;10913;51.992;9.228;2022-11-20T01:21:30;14.18;;;11.88;;
21503;SDS011;10913;51.992;9.228;2022-11-20T01:24:00;13.48;;;11.27;;
21503;SDS011;10913;51.992;9.228;2022-11-20T01:26:27;13.32;;;11.48;;
21503;SDS011;10913;51.992;9.228;2022-11-20T01:28:55;14.73;;;11.27;;
21503;SDS011;10913;51.992;9.228;2022-11-20T01:31:22;13.00;;;10.70;;
21503;SDS011;10913;51.992;9.228;2022-11-20T01:33:50;13.02;;;10.70;;
21503;SDS011;10913;51.992;9.228;2022-11-20T01:36:18;12.65;;;10.55;;
21503;SDS011;10913;51.992;9.228;2022-11-20T01:38:46;12.80;;;10.80;;
21503;SDS011;10913;51.992;9.228;2022-11-20T01:41:12;13.30;;;10.77;;
21503;SDS011;10913;51.992;9.228;2022-11-20T01:43:59;12.80;;;10.73;;
21503;SDS011;10913;51.992;9.228;2022-11-20T01:46:24;13.80;;;11.13;;
21503;SDS011;10913;51.992;9.228;2022-11-20T01:53:53;13.60;;;11.13;;
21503;SDS011;10913;51.992;9.228;2022-11-20T01:56:20;12.73;;;10.65;;
21503;SDS011;10913;51.992;9.228;2022-11-20T01:58:51;12.95;;;11.00;;
21503;SDS011;10913;51.992;9.228;2022-11-20T02:01:18;12.95;;;10.80;;
21503;SDS011;10913;51.992;9.228;2022-11-20T02:03:46;12.95;;;10.85;;
21503;SDS011;10913;51.992;9.228;2022-11-20T02:09:25;13.40;;;11.35;;
21503;SDS011;10913;51.992;9.228;2022-11-20T02:11:51;13.00;;;10.25;;
21503;SDS011;10913;51.992;9.228;2022-11-20T02:14:17;13.02;;;10.82;;
21503;SDS011;10913;51.992;9.228;2022-11-20T02:16:46;12.55;;;10.80;;
21503;SDS011;10913;51.992;9.228;2022-11-20T02:19:16;12.55;;;10.82;;
21503;SDS011;10913;51.992;9.228;2022-11-20T02:22:02;12.48;;;11.13;;
21503;SDS011;10913;51.992;9.228;2022-11-20T02:24:28;14.57;;;11.07;;
21503;SDS011;10913;51.992;9.228;2022-11-20T02:26:57;12.77;;;11.20;;
21503;SDS011;10913;51.992;9.228;2022-11-20T02:29:28;13.85;;;11.40;;
21503;SDS011;10913;51.992;9.228;2022-11-20T02:31:58;13.02;;;10.88;;
21503;SDS011;10913;51.992;9.228;2022-11-20T02:34:26;13.18;;;10.15;;
21503;SDS011;10913;51.992;9.228;2022-11-20T02:36:52;13.77;;;11.30;;
21503;SDS011;10913;51.992;9.228;2022-11-20T02:39:18;14.10;;;11.05;;
21503;SDS011;10913;51.992;9.228;2022-11-20T02:41:45;12.18;;;10.88;;
21503;SDS011;10913;51.992;9.228;2022-11-20T02:44:10;13.60;;;10.95;;
21503;SDS011;10913;51.992;9.228;2022-11-20T02:46:36;12.95;;;10.93;;
21503;SDS011;10913;51.992;9.228;2022-11-20T02:49:02;13.40;;;11.20;;
21503;SDS011;10913;51.992;9.228;2022-11-20T02:51:28;13.63;;;10.95;;
21503;SDS011;10913;51.992;9.228;2022-11-20T02:53:54;13.63;;;11.32;;
21503;SDS011;10913;51.992;9.228;2022-11-20T02:56:19;14.30;;;11.45;;
21503;SDS011;10913;51.992;9.228;2022-11-20T02:58:45;13.15;;;11.18;;
21503;SDS011;10913;51.992;9.228;2022-11-20T03:01:10;13.43;;;11.10;;
21503;SDS011;10913;51.992;9.228;2022-11-20T03:03:35;13.10;;;11.40;;
21503;SDS011;10913;51.992;9.228;2022-11-20T03:06:01;13.65;;;11.23;;
21503;SDS011;10913;51.992;9.228;2022-11-20T03:08:26;14.18;;;11.30;;
21503;SDS011;10913;51.992;9.228;2022-11-20T03:10:52;11.85;;;10.35;;
21503;SDS011;10913;51.992;9.228;2022-11-20T03:13:17;13.23;;;11.02;;
21503;SDS011;10913;51.992;9.228;2022-11-20T03:15:42;13.05;;;10.90;;
21503;SDS011;10913;51.992;9.228;2022-11-20T03:18:08;12.80;;;11.30;;
21503;SDS011;10913;51.992;9.228;2022-11-20T03:20:33;13.35;;;10.98;;
21503;SDS011;10913;51.992;9.228;2022-11-20T03:22:59;15.73;;;12.73;;
21503;SDS011;10913;51.992;9.228;2022-11-20T03:25:24;15.23;;;12.38;;
21503;SDS011;10913;51.992;9.228;2022-11-20T03:27:50;15.07;;;12.10;;
21503;SDS011;10913;51.992;9.228;2022-11-20T03:30:15;15.40;;;12.27;;
21503;SDS011;10913;51.992;9.228;2022-11-20T03:32:41;16.98;;;14.55;;
21503;SDS011;10913;51.992;9.228;2022-11-20T03:35:06;17.92;;;14.90;;
21503;SDS011;10913;51.992;9.228;2022-11-20T03:37:32;17.33;;;14.70;;
21503;SDS011;10913;51.992;9.228;2022-11-20T03:39:58;18.83;;;15.70;;
21503;SDS011;10913;51.992;9.228;2022-11-20T03:42:23;20.23;;;15.52;;
21503;SDS011;10913;51.992;9.228;2022-11-20T03:45:07;17.00;;;14.23;;
21503;SDS011;10913;51.992;9.228;2022-11-20T03:47:33;15.43;;;13.25;;
21503;SDS011;10913;51.992;9.228;2022-11-20T03:49:58;15.93;;;12.63;;
21503;SDS011;10913;51.992;9.228;2022-11-20T03:52:23;16.05;;;12.15;;
21503;SDS011;10913;51.992;9.228;2022-11-20T03:54:49;13.05;;;11.27;;
21503;SDS011;10913;51.992;9.228;2022-11-20T03:57:14;13.73;;;11.18;;
21503;SDS011;10913;51.992;9.228;2022-11-20T03:59:39;14.30;;;11.55;;
21503;SDS011;10913;51.992;9.228;2022-11-20T04:02:05;14.60;;;11.70;;
21503;SDS011;10913;51.992;9.228;2022-11-20T04:04:30;14.18;;;11.68;;
21503;SDS011;10913;51.992;9.228;2022-11-20T04:06:55;12.35;;;10.85;;
21503;SDS011;10913;51.992;9.228;2022-11-20T04:09:21;14.10;;;11.55;;
21503;SDS011;10913;51.992;9.228;2022-11-20T04:11:46;14.10;;;11.70;;
21503;SDS011;10913;51.992;9.228;2022-11-20T04:14:15;12.38;;;11.00;;
21503;SDS011;10913;51.992;9.228;2022-11-20T04:16:41;14.63;;;12.20;;
21503;SDS011;10913;51.992;9.228;2022-11-20T04:19:11;15.55;;;11.35;;
21503;SDS011;10913;51.992;9.228;2022-11-20T04:21:39;12.82;;;11.13;;
21503;SDS011;10913;51.992;9.228;2022-11-20T04:24:05;15.23;;;11.75;;
21503;SDS011;10913;51.992;9.228;2022-11-20T04:26:31;12.55;;;10.73;;
21503;SDS011;10913;51.992;9.228;2022-11-20T04:28:57;14.48;;;11.32;;
21503;SDS011;10913;51.992;9.228;2022-11-20T04:31:27;13.52;;;11.52;;
21503;SDS011;10913;51.992;9.228;2022-11-20T04:33:54;13.50;;;11.25;;
21503;SDS011;10913;51.992;9.228;2022-11-20T04:36:21;14.57;;;11.90;;
21503;SDS011;10913;51.992;9.228;2022-11-20T04:38:51;14.40;;;11.85;;
21503;SDS011;10913;51.992;9.228;2022-11-20T04:41:19;14.23;;;11.57;;
21503;SDS011;10913;51.992;9.228;2022-11-20T04:43:46;15.13;;;12.25;;
21503;SDS011;10913;51.992;9.228;2022-11-20T04:46:19;14.50;;;11.60;;
21503;SDS011;10913;51.992;9.228;2022-11-20T04:48:45;14.35;;;11.75;;
21503;SDS011;10913;51.992;9.228;2022-11-20T04:51:11;14.25;;;11.95;;
21503;SDS011;10913;51.992;9.228;2022-11-20T04:53:38;14.52;;;11.75;;
21503;SDS011;10913;51.992;9.228;2022-11-20T04:56:04;13.75;;;11.25;;
21503;SDS011;10913;51.992;9.228;2022-11-20T04:58:32;13.80;;;11.70;;
21503;SDS011;10913;51.992;9.228;2022-11-20T05:01:17;13.45;;;11.27;;
21503;SDS011;10913;51.992;9.228;2022-11-20T05:03:44;15.73;;;11.85;;
21503;SDS011;10913;51.992;9.228;2022-11-20T05:06:14;14.68;;;11.95;;
21503;SDS011;10913;51.992;9.228;2022-11-20T05:08:41;13.95;;;11.70;;
21503;SDS011;10913;51.992;9.228;2022-11-20T05:11:08;13.80;;;11.38;;
21503;SDS011;10913;51.992;9.228;2022-11-20T05:13:35;14.18;;;11.70;;
21503;SDS011;10913;51.992;9.228;2022-11-20T05:16:01;15.13;;;12.45;;
21503;SDS011;10913;51.992;9.228;2022-11-20T05:18:28;13.73;;;11.85;;
21503;SDS011;10913;51.992;9.228;2022-11-20T05:20:57;14.57;;;11.82;;
21503;SDS011;10913;51.992;9.228;2022-11-20T05:23:23;14.63;;;11.27;;
21503;SDS011;10913;51.992;9.228;2022-11-20T05:25:53;13.75;;;11.15;;
21503;SDS011;10913;51.992;9.228;2022-11-20T05:28:19;13.70;;;11.50;;
21503;SDS011;10913;51.992;9.228;2022-11-20T05:30:45;13.07;;;11.63;;
21503;SDS011;10913;51.992;9.228;2022-11-20T05:33:10;13.00;;;11.35;;
21503;SDS011;10913;51.992;9.228;2022-11-20T05:35:35;13.55;;;11.43;;
21503;SDS011;10913;51.992;9.228;2022-11-20T05:38:01;13.10;;;11.00;;
21503;SDS011;10913;51.992;9.228;2022-11-20T05:40:26;12.93;;;11.23;;
21503;SDS011;10913;51.992;9.228;2022-11-20T05:42:51;14.40;;;11.63;;
21503;SDS011;10913;51.992;9.228;2022-11-20T05:45:17;13.43;;;11.60;;
21503;SDS011;10913;51.992;9.228;2022-11-20T05:47:42;13.35;;;10.93;;
21503;SDS011;10913;51.992;9.228;2022-11-20T05:50:07;14.52;;;11.68;;
21503;SDS011;10913;51.992;9.228;2022-11-20T05:52:33;14.57;;;12.20;;
21503;SDS011;10913;51.992;9.228;2022-11-20T05:54:58;14.13;;;11.80;;
21503;SDS011;10913;51.992;9.228;2022-11-20T05:57:23;13.68;;;11.20;;
21503;SDS011;10913;51.992;9.228;2022-11-20T05:59:49;14.63;;;12.23;;
21503;SDS011;10913;51.992;9.228;2022-11-20T06:02:14;14.30;;;11.73;;
21503;SDS011;10913;51.992;9.228;2022-11-20T06:04:40;15.10;;;11.90;;
21503;SDS011;10913;51.992;9.228;2022-11-20T06:07:05;13.20;;;11.80;;
21503;SDS011;10913;51.992;9.228;2022-11-20T06:09:31;14.02;;;11.30;;
21503;SDS011;10913;51.992;9.228;2022-11-20T06:11:57;13.68;;;10.95;;
21503;SDS011;10913;51.992;9.228;2022-11-20T06:14:22;13.82;;;11.60;;
21503;SDS011;10913;51.992;9.228;2022-11-20T06:16:48;13.55;;;11.13;;
21503;SDS011;10913;51.992;9.228;2022-11-20T06:19:13;13.77;;;11.30;;
21503;SDS011;10913;51.992;9.228;2022-11-20T06:21:39;14.52;;;11.27;;
21503;SDS011;10913;51.992;9.228;2022-11-20T06:24:05;12.50;;;10.95;;
21503;SDS011;10913;51.992;9.228;2022-11-20T06:26:30;14.57;;;12.00;;
21503;SDS011;10913;51.992;9.228;2022-11-20T06:28:56;13.77;;;11.20;;
21503;SDS011;10913;51.992;9.228;2022-11-20T06:31:22;14.30;;;11.82;;
21503;SDS011;10913;51.992;9.228;2022-11-20T06:33:49;12.70;;;10.95;;
21503;SDS011;10913;51.992;9.228;2022-11-20T06:36:16;14.93;;;11.18;;
21503;SDS011;10913;51.992;9.228;2022-11-20T06:38:44;13.43;;;11.55;;
21503;SDS011;10913;51.992;9.228;2022-11-20T06:41:13;13.77;;;11.20;;
21503;SDS011;10913;51.992;9.228;2022-11-20T06:43:41;13.25;;;11.60;;
21503;SDS011;10913;51.992;9.228;2022-11-20T06:46:06;12.35;;;10.60;;
21503;SDS011;10913;51.992;9.228;2022-11-20T06:48:33;13.13;;;11.48;;
21503;SDS011;10913;51.992;9.228;2022-11-20T06:50:59;15.98;;;13.10;;
21503;SDS011;10913;51.992;9.228;2022-11-20T06:53:24;16.85;;;12.40;;
21503;SDS011;10913;51.992;9.228;2022-11-20T06:55:50;14.88;;;12.85;;
21503;SDS011;10913;51.992;9.228;2022-11-20T06:58:17;15.32;;;12.15;;
21503;SDS011;10913;51.992;9.228;2022-11-20T07:00:43;13.05;;;11.52;;
21503;SDS011;10913;51.992;9.228;2022-11-20T07:03:10;15.25;;;11.57;;
21503;SDS011;10913;51.992;9.228;2022-11-20T07:05:36;14.50;;;11.70;;
21503;SDS011;10913;51.992;9.228;2022-11-20T07:08:03;13.73;;;11.65;;
21503;SDS011;10913;51.992;9.228;2022-11-20T07:10:29;13.27;;;11.38;;
21503;SDS011;10913;51.992;9.228;2022-11-20T07:12:55;13.52;;;11.15;;
21503;SDS011;10913;51.992;9.228;2022-11-20T07:15:21;12.80;;;10.65;;
21503;SDS011;10913;51.992;9.228;2022-11-20T07:17:47;13.68;;;11.77;;
21503;SDS011;10913;51.992;9.228;2022-11-20T07:20:13;13.73;;;11.30;;
21503;SDS011;10913;51.992;9.228;2022-11-20T07:22:39;14.13;;;10.98;;
21503;SDS011;10913;51.992;9.228;2022-11-20T07:25:04;13.52;;;11.43;;
21503;SDS011;10913;51.992;9.228;2022-11-20T07:27:31;12.50;;;11.00;;
21503;SDS011;10913;51.992;9.228;2022-11-20T07:29:56;12.73;;;10.50;;
21503;SDS011;10913;51.992;9.228;2022-11-20T07:32:21;12.05;;;10.75;;
21503;SDS011;10913;51.992;9.228;2022-11-20T07:34:47;13.75;;;11.13;;
21503;SDS011;10913;51.992;9.228;2022-11-20T07:37:13;11.20;;;9.63;;
21503;SDS011;10913;51.992;9.228;2022-11-20T07:39:38;11.57;;;9.93;;
21503;SDS011;10913;51.992;9.228;2022-11-20T07:42:05;12.70;;;10.32;;
21503;SDS011;10913;51.992;9.228;2022-11-20T07:44:31;12.13;;;9.48;;
21503;SDS011;10913;51.992;9.228;2022-11-20T07:46:57;11.52;;;10.00;;
21503;SDS011;10913;51.992;9.228;2022-11-20T07:49:22;12.50;;;10.90;;
21503;SDS011;10913;51.992;9.228;2022-11-20T07:51:49;13.68;;;12.00;;
21503;SDS011;10913;51.992;9.228;2022-11-20T07:54:16;13.38;;;11.60;;
21503;SDS011;10913;51.992;9.228;2022-11-20T07:56:41;12.68;;;10.93;;
21503;SDS011;10913;51.992;9.228;2022-11-20T07:59:06;12.15;;;10.68;;
21503;SDS011;10913;51.992;9.228;2022-11-20T08:01:32;11.70;;;10.38;;
21503;SDS011;10913;51.992;9.228;2022-11-20T08:03:57;15.70;;;12.90;;
21503;SDS011;10913;51.992;9.228;2022-11-20T08:06:23;15.02;;;12.57;;
21503;SDS011;10913;51.992;9.228;2022-11-20T08:08:49;16.55;;;14.13;;
21503;SDS011;10913;51.992;9.228;2022-11-20T08:11:15;19.45;;;15.98;;
21503;SDS011;10913;51.992;9.228;2022-11-20T08:13:59;20.38;;;17.77;;
21503;SDS011;10913;51.992;9.228;2022-11-20T08:16:36;22.80;;;18.73;;
21503;SDS011;10913;51.992;9.228;2022-11-20T08:19:02;21.20;;;17.67;;
21503;SDS011;10913;51.992;9.228;2022-11-20T08:21:28;21.42;;;16.88;;
21503;SDS011;10913;51.992;9.228;2022-11-20T08:23:53;22.17;;;17.90;;
21503;SDS011;10913;51.992;9.228;2022-11-20T08:26:19;27.27;;;21.08;;
21503;SDS011;10913;51.992;9.228;2022-11-20T08:28:46;26.08;;;19.95;;
21503;SDS011;10913;51.992;9.228;2022-11-20T08:31:17;23.08;;;19.25;;
21503;SDS011;10913;51.992;9.228;2022-11-20T08:33:43;19.25;;;15.13;;
21503;SDS011;10913;51.992;9.228;2022-11-20T08:36:08;19.05;;;15.65;;
21503;SDS011;10913;51.992;9.228;2022-11-20T08:38:33;18.48;;;14.85;;
21503;SDS011;10913;51.992;9.228;2022-11-20T08:40:59;16.02;;;13.65;;
21503;SDS011;10913;51.992;9.228;2022-11-20T08:43:45;14.30;;;12.52;;
21503;SDS011;10913;51.992;9.228;2022-11-20T08:46:10;15.00;;;13.18;;
21503;SDS011;10913;51.992;9.228;2022-11-20T08:48:36;14.77;;;12.35;;
21503;SDS011;10913;51.992;9.228;2022-11-20T08:51:01;16.70;;;13.13;;
21503;SDS011;10913;51.992;9.228;2022-11-20T08:53:27;16.98;;;12.70;;
21503;SDS011;10913;51.992;9.228;2022-11-20T08:55:52;14.52;;;11.75;;
21503;SDS011;10913;51.992;9.228;2022-11-20T08:58:18;13.77;;;10.93;;
21503;SDS011;10913;51.992;9.228;2022-11-20T09:00:43;19.63;;;14.75;;
21503;SDS011;10913;51.992;9.228;2022-11-20T09:03:09;18.00;;;14.50;;
21503;SDS011;10913;51.992;9.228;2022-11-20T09:05:34;17.67;;;13.40;;
21503;SDS011;10913;51.992;9.228;2022-11-20T09:07:59;19.25;;;15.50;;
21503;SDS011;10913;51.992;9.228;2022-11-20T09:10:28;17.65;;;15.10;;
21503;SDS011;10913;51.992;9.228;2022-11-20T09:12:53;15.60;;;12.85;;
21503;SDS011;10913;51.992;9.228;2022-11-20T09:15:20;17.02;;;13.88;;
21503;SDS011;10913;51.992;9.228;2022-11-20T09:17:52;17.85;;;14.43;;
21503;SDS011;10913;51.992;9.228;2022-11-20T09:20:22;14.77;;;12.25;;
21503;SDS011;10913;51.992;9.228;2022-11-20T09:22:47;14.52;;;11.77;;
21503;SDS011;10913;51.992;9.228;2022-11-20T09:25:13;13.70;;;11.68;;
21503;SDS011;10913;51.992;9.228;2022-11-20T09:27:38;14.55;;;12.90;;
21503;SDS011;10913;51.992;9.228;2022-11-20T09:30:04;14.82;;;12.65;;
21503;SDS011;10913;51.992;9.228;2022-11-20T09:32:29;16.50;;;13.18;;
21503;SDS011;10913;51.992;9.228;2022-11-20T09:34:55;15.27;;;12.45;;
21503;SDS011;10913;51.992;9.228;2022-11-20T09:37:20;15.32;;;12.80;;
21503;SDS011;10913;51.992;9.228;2022-11-20T09:39:46;14.73;;;12.40;;
21503;SDS011;10913;51.992;9.228;2022-11-20T09:51:29;18.95;;;13.65;;
21503;SDS011;10913;51.992;9.228;2022-11-20T09:54:26;19.50;;;15.15;;
21503;SDS011;10913;51.992;9.228;2022-11-20T09:56:58;20.52;;;14.70;;
21503;SDS011;10913;51.992;9.228;2022-11-20T10:10:29;18.05;;;14.80;;
21503;SDS011;10913;51.992;9.228;2022-11-20T10:15:49;21.08;;;15.65;;
21503;SDS011;10913;51.992;9.228;2022-11-20T10:30:08;19.88;;;15.70;;
21503;SDS011;10913;51.992;9.228;2022-11-20T10:32:37;20.73;;;15.70;;
21503;SDS011;10913;51.992;9.228;2022-11-20T10:37:30;19.27;;;15.10;;
21503;SDS011;10913;51.992;9.228;2022-11-20T10:45:15;18.27;;;14.38;;
21503;SDS011;10913;51.992;9.228;2022-11-20T10:47:46;17.25;;;14.50;;
21503;SDS011;10913;51.992;9.228;2022-11-20T10:50:14;15.55;;;13.25;;
21503;SDS011;10913;51.992;9.228;2022-11-20T10:53:05;18.55;;;14.27;;
21503;SDS011;10913;51.992;9.228;2022-11-20T10:55:47;14.88;;;12.32;;
21503;SDS011;10913;51.992;9.228;2022-11-20T11:01:03;16.52;;;13.02;;
21503;SDS011;10913;51.992;9.228;2022-11-20T11:03:39;16.73;;;12.70;;
21503;SDS011;10913;51.992;9.228;2022-11-20T11:06:10;16.30;;;13.02;;
21503;SDS011;10913;51.992;9.228;2022-11-20T11:11:15;14.60;;;11.55;;
21503;SDS011;10913;51.992;9.228;2022-11-20T11:13:47;13.65;;;11.25;;
21503;SDS011;10913;51.992;9.228;2022-11-20T11:16:17;14.90;;;12.13;;
21503;SDS011;10913;51.992;9.228;2022-11-20T11:18:45;14.27;;;12.18;;
21503;SDS011;10913;51.992;9.228;2022-11-20T11:21:11;15.82;;;11.77;;
21503;SDS011;10913;51.992;9.228;2022-11-20T11:23:40;14.50;;;11.80;;
21503;SDS011;10913;51.992;9.228;2022-11-20T11:26:18;14.93;;;11.80;;
21503;SDS011;10913;51.992;9.228;2022-11-20T11:28:59;14.45;;;11.90;;
21503;SDS011;10913;51.992;9.228;2022-11-20T11:31:26;16.45;;;12.25;;
21503;SDS011;10913;51.992;9.228;2022-11-20T11:34:06;14.25;;;11.85;;
21503;SDS011;10913;51.992;9.228;2022-11-20T11:36:41;13.85;;;10.82;;
21503;SDS011;10913;51.992;9.228;2022-11-20T11:39:14;14.15;;;11.10;;
21503;SDS011;10913;51.992;9.228;2022-11-20T11:41:42;11.80;;;10.25;;
21503;SDS011;10913;51.992;9.228;2022-11-20T11:44:15;11.45;;;9.55;;
21503;SDS011;10913;51.992;9.228;2022-11-20T11:47:03;13.52;;;10.45;;
21503;SDS011;10913;51.992;9.228;2022-11-20T11:49:33;13.18;;;9.95;;
21503;SDS011;10913;51.992;9.228;2022-11-20T11:54:38;12.18;;;9.93;;
21503;SDS011;10913;51.992;9.228;2022-11-20T11:57:13;13.35;;;10.40;;
21503;SDS011;10913;51.992;9.228;2022-11-20T12:07:51;14.48;;;10.13;;
21503;SDS011;10913;51.992;9.228;2022-11-20T12:10:23;12.07;;;9.65;;
21503;SDS011;10913;51.992;9.228;2022-11-20T12:13:02;11.38;;;9.35;;
21503;SDS011;10913;51.992;9.228;2022-11-20T12:15:44;11.55;;;9.63;;
21503;SDS011;10913;51.992;9.228;2022-11-20T12:18:14;11.60;;;9.43;;
21503;SDS011;10913;51.992;9.228;2022-11-20T12:21:26;12.02;;;10.02;;
21503;SDS011;10913;51.992;9.228;2022-11-20T12:29:50;11.40;;;9.50;;
21503;SDS011;10913;51.992;9.228;2022-11-20T12:38:27;11.68;;;9.15;;
21503;SDS011;10913;51.992;9.228;2022-11-20T12:47:42;11.15;;;9.20;;
21503;SDS011;10913;51.992;9.228;2022-11-20T13:02:24;10.15;;;8.55;;
21503;SDS011;10913;51.992;9.228;2022-11-20T13:05:17;11.43;;;8.93;;
21503;SDS011;10913;51.992;9.228;2022-11-20T13:07:43;11.50;;;9.02;;
21503;SDS011;10913;51.992;9.228;2022-11-20T13:10:32;9.93;;;7.88;;
21503;SDS011;10913;51.992;9.228;2022-11-20T13:13:01;9.40;;;7.95;;
21503;SDS011;10913;51.992;9.228;2022-11-20T13:15:44;12.18;;;9.13;;
21503;SDS011;10913;51.992;9.228;2022-11-20T13:18:18;12.90;;;9.23;;
21503;SDS011;10913;51.992;9.228;2022-11-20T13:20:44;11.43;;;8.85;;
21503;SDS011;10913;51.992;9.228;2022-11-20T13:23:22;14.30;;;9.73;;
21503;SDS011;10913;51.992;9.228;2022-11-20T13:25:49;14.15;;;10.90;;
21503;SDS011;10913;51.992;9.228;2022-11-20T13:30:53;14.73;;;10.15;;
21503;SDS011;10913;51.992;9.228;2022-11-20T13:36:06;13.02;;;9.65;;
21503;SDS011;10913;51.992;9.228;2022-11-20T13:38:48;13.82;;;10.30;;
21503;SDS011;10913;51.992;9.228;2022-11-20T13:41:35;13.55;;;10.25;;
21503;SDS011;10913;51.992;9.228;2022-11-20T13:46:39;13.23;;;9.95;;
21503;SDS011;10913;51.992;9.228;2022-11-20T13:49:55;13.25;;;9.68;;
21503;SDS011;10913;51.992;9.228;2022-11-20T13:52:07;13.48;;;10.02;;
21503;SDS011;10913;51.992;9.228;2022-11-20T14:02:43;12.43;;;8.75;;
21503;SDS011;10913;51.992;9.228;2022-11-20T14:05:15;14.98;;;10.65;;
21503;SDS011;10913;51.992;9.228;2022-11-20T14:07:45;13.60;;;9.82;;
21503;SDS011;10913;51.992;9.228;2022-11-20T14:10:28;14.13;;;10.30;;
21503;SDS011;10913;51.992;9.228;2022-11-20T14:12:54;12.85;;;9.55;;
21503;SDS011;10913;51.992;9.228;2022-11-20T14:15:27;12.40;;;10.00;;
21503;SDS011;10913;51.992;9.228;2022-11-20T14:17:57;13.48;;;9.98;;
21503;SDS011;10913;51.992;9.228;2022-11-20T14:20:25;13.02;;;9.73;;
21503;SDS011;10913;51.992;9.228;2022-11-20T14:22:54;13.73;;;9.60;;
21503;SDS011;10913;51.992;9.228;2022-11-20T14:25:24;15.27;;;10.00;;
21503;SDS011;10913;51.992;9.228;2022-11-20T14:27:57;13.70;;;10.18;;
21503;SDS011;10913;51.992;9.228;2022-11-20T14:30:28;14.35;;;9.63;;
21503;SDS011;10913;51.992;9.228;2022-11-20T14:33:02;13.77;;;9.85;;
21503;SDS011;10913;51.992;9.228;2022-11-20T14:35:30;14.05;;;10.38;;
21503;SDS011;10913;51.992;9.228;2022-11-20T14:38:00;13.48;;;9.90;;
21503;SDS011;10913;51.992;9.228;2022-11-20T14:40:34;12.68;;;9.35;;
21503;SDS011;10913;51.992;9.228;2022-11-20T14:43:01;14.25;;;10.68;;
21503;SDS011;10913;51.992;9.228;2022-11-20T14:45:39;14.38;;;10.18;;
21503;SDS011;10913;51.992;9.228;2022-11-20T14:48:05;13.13;;;9.77;;
21503;SDS011;10913;51.992;9.228;2022-11-20T14:50:30;13.98;;;9.93;;
21503;SDS011;10913;51.992;9.228;2022-11-20T14:52:57;13.93;;;9.57;;
21503;SDS011;10913;51.992;9.228;2022-11-20T14:55:32;12.82;;;9.15;;
21503;SDS011;10913;51.992;9.228;2022-11-20T14:58:06;15.57;;;10.15;;
21503;SDS011;10913;51.992;9.228;2022-11-20T15:00:53;14.73;;;10.93;;
21503;SDS011;10913;51.992;9.228;2022-11-20T15:03:21;16.13;;;10.50;;
21503;SDS011;10913;51.992;9.228;2022-11-20T15:05:48;13.90;;;10.48;;
21503;SDS011;10913;51.992;9.228;2022-11-20T15:08:15;14.40;;;10.95;;
21503;SDS011;10913;51.992;9.228;2022-11-20T15:10:48;16.75;;;11.52;;
21503;SDS011;10913;51.992;9.228;2022-11-20T15:13:19;17.35;;;13.25;;
21503;SDS011;10913;51.992;9.228;2022-11-20T15:15:57;14.27;;;12.07;;
21503;SDS011;10913;51.992;9.228;2022-11-20T15:18:27;14.38;;;11.00;;
21503;SDS011;10913;51.992;9.228;2022-11-20T15:20:55;16.08;;;12.23;;
21503;SDS011;10913;51.992;9.228;2022-11-20T15:23:22;13.88;;;10.85;;
21503;SDS011;10913;51.992;9.228;2022-11-20T15:25:48;12.10;;;9.82;;
21503;SDS011;10913;51.992;9.228;2022-11-20T15:28:19;11.63;;;9.13;;
21503;SDS011;10913;51.992;9.228;2022-11-20T15:30:48;10.23;;;8.70;;
21503;SDS011;10913;51.992;9.228;2022-11-20T15:33:14;12.85;;;10.10;;
21503;SDS011;10913;51.992;9.228;2022-11-20T15:35:40;12.32;;;10.18;;
21503;SDS011;10913;51.992;9.228;2022-11-20T15:38:06;13.52;;;10.05;;
21503;SDS011;10913;51.992;9.228;2022-11-20T15:40:31;13.98;;;10.35;;
21503;SDS011;10913;51.992;9.228;2022-11-20T15:42:56;14.40;;;9.98;;
21503;SDS011;10913;51.992;9.228;2022-11-20T15:45:28;12.55;;;9.88;;
21503;SDS011;10913;51.992;9.228;2022-11-20T15:47:57;13.07;;;9.48;;
21503;SDS011;10913;51.992;9.228;2022-11-20T15:50:24;12.70;;;9.68;;
21503;SDS011;10913;51.992;9.228;2022-11-20T15:52:54;13.93;;;9.73;;
21503;SDS011;10913;51.992;9.228;2022-11-20T15:55:20;11.25;;;9.27;;
21503;SDS011;10913;51.992;9.228;2022-11-20T15:57:45;14.02;;;10.48;;
21503;SDS011;10913;51.992;9.228;2022-11-20T16:00:11;13.45;;;10.40;;
21503;SDS011;10913;51.992;9.228;2022-11-20T16:02:37;14.07;;;10.15;;
21503;SDS011;10913;51.992;9.228;2022-11-20T16:05:02;14.27;;;10.15;;
21503;SDS011;10913;51.992;9.228;2022-11-20T16:07:27;13.77;;;10.40;;
21503;SDS011;10913;51.992;9.228;2022-11-20T16:09:53;14.18;;;10.05;;
21503;SDS011;10913;51.992;9.228;2022-11-20T16:12:20;12.80;;;9.85;;
21503;SDS011;10913;51.992;9.228;2022-11-20T16:15:04;13.25;;;9.55;;
21503;SDS011;10913;51.992;9.228;2022-11-20T16:17:48;12.63;;;9.73;;
21503;SDS011;10913;51.992;9.228;2022-11-20T16:20:15;12.30;;;9.48;;
21503;SDS011;10913;51.992;9.228;2022-11-20T16:22:40;13.02;;;9.57;;
21503;SDS011;10913;51.992;9.228;2022-11-20T16:25:06;11.57;;;9.07;;
21503;SDS011;10913;51.992;9.228;2022-11-20T16:27:31;12.40;;;9.57;;